Terminal Aerodrome Forecast
Issued by NWS

Home | Current Version | Previous Version | Text Only | Print | Product List | Glossary Off
Versions: 1 2 3 4 5 6 7 8 9 10 11 12 13 14 15 16 17 18 19 20 21 22

000
FTUS43 KICT 290758 AAB
TAFCNU
TAF AMD
KCNU 290758Z 2908/3006 03015G22KT 1 1/2SM BR VCTS OVC002CB
      TEMPO 2908/2912 1/2SM +TSRA SCT002 OVC008CB
     FM291200 03015G22KT 2SM BR VCTS OVC003CB
      TEMPO 2912/2916 1/2SM +TSRA SCT002 OVC006CB
     FM291600 03014KT 6SM BR VCTS OVC006CB
     FM292200 05011KT P6SM VCTS SCT010 OVC015CB=

USA.gov is the U.S. government's official web portal to all federal, state and local government web resources and services.